Troy, South Dakota
Current Conditions -  °F | °C
As of 9:53 PM on Wednesday 22 Oct 2014 (Local Time) from KATY Reporting Station
Clear Clear  
Wind Chill: 51°   Ceiling: Unl
Heat Index: 51°   Visibility: 10mi
Dew Point: 50°   Wind: 7mph
Humidity: 96%   Direction: 240°WSW
Pressure: 29.96"   Gusts: NA
Location:  45.0202°N, 96.8218°W
Report Text: KATY 230253Z AUTO 24006KT 10SM CLR 11/10 A2996 RMK AO2 SLP150 T01060100 51006
Loading
Personal Weather Stations






























Interactive Weather Map
Tropical Storm Tracking
New forecast layout! Learn more

10-Day Weather Forecast

Advertisements
Track Severe Weather on mobile